TAF Text Data
IDs:
Format:
Raw Decoded Include METAR

Data at: 1019 UTC 25 Oct 2020

KABY 250902Z 2509/2606 00000KT 5SM BR OVC004
  TEMPO 2510/2514 2SM BR OVC002
  FM251400 00000KT 4SM BR BKN009
  FM251700 29003KT P6SM SCT030